Station Historical Data
Daily Summary for May 23, 2012 Units:  Metric    English   Both
« Previous Day
Next Day »
Daily Weekly Monthly Yearly Custom
  High: Low: Average:
Temperature: 26.9 °C 10.4 °C 19.7 °C
Dew Point: 16.1 °C 9.4 °C 12.6 °C
Humidity: 95% 38% 67%
Wind Speed: 14.5km/h 0km/h 2.7km/h
Wind Gust: 17.7km/h - -
Wind- - SSE
Pressure: 1011.7 hPa 1008.7 hPa -
Precipitation: 0 mm    
Historical Graphs
 
 
Tabular Data for May 23, 2012
Time Temperature Dew Point Pressure Wind Wind Speed Wind Gust Humidity Rainfall Rate (Hourly) Conditions
00:00 15.8 °C 11.9 °C 1011.4 hPa North 1.6 km/h 1.6 km/h 78% 0 mm
00:01 15.8 °C 12 °C 1011.4 hPa North 1.6 km/h 1.6 km/h 78% 0 mm
00:06 15.9 °C 12.1 °C 1011.4 hPa Calm     78% 0 mm
00:11 15.8 °C 11.8 °C 1011.4 hPa Calm   1.6 km/h 77% 0 mm
00:14 15.7 °C 12.1 °C 1011.4 hPa Calm     79% 0 mm
00:19 15.4 °C 11.8 °C 1011.4 hPa Calm   1.6 km/h 79% 0 mm
00:24 15.3 °C 11.7 °C 1011.4 hPa Calm     79% 0 mm
00:30 15.3 °C 11.7 °C 1011.4 hPa Calm   1.6 km/h 79% 0 mm
00:35 15.3 °C 11.7 °C 1011.4 hPa Calm     79% 0 mm
00:40 15.1 °C 11.5 °C 1011.4 hPa Calm   1.6 km/h 79% 0 mm
00:45 15.2 °C 11.4 °C 1011.4 hPa Calm   1.6 km/h 78% 0 mm
00:50 15.3 °C 11.3 °C 1011.4 hPa NNE 1.6 km/h 1.6 km/h 77% 0 mm
00:55 15.4 °C 11.4 °C 1011.4 hPa Calm   1.6 km/h 77% 0 mm
01:00 15.4 °C 11.4 °C 1011.4 hPa NNE 1.6 km/h 3.2 km/h 77% 0 mm
01:05 15.3 °C 11.3 °C 1011.4 hPa Calm   3.2 km/h 77% 0 mm
01:10 15.3 °C 11.3 °C 1011.4 hPa Calm   1.6 km/h 77% 0 mm
01:15 15.3 °C 11.1 °C 1011.4 hPa NE 1.6 km/h 1.6 km/h 76% 0 mm
01:20 15.3 °C 11.1 °C 1011.4 hPa North 1.6 km/h 1.6 km/h 76% 0 mm
01:25 15.2 °C 11.2 °C 1011.4 hPa NNW 1.6 km/h 3.2 km/h 77% 0 mm
01:30 14.7 °C 11.4 °C 1011.4 hPa Calm   1.6 km/h 81% 0 mm
01:35 14.2 °C 11.4 °C 1011.4 hPa Calm     83% 0 mm
01:40 14 °C 11.3 °C 1011.4 hPa Calm     84% 0 mm
01:45 13.9 °C 11.4 °C 1011.1 hPa Calm     85% 0 mm
01:50 13.8 °C 11.3 °C 1011.4 hPa Calm     85% 0 mm
01:55 13.7 °C 11.4 °C 1011.1 hPa Calm     86% 0 mm
02:00 13.4 °C 11.3 °C 1011.1 hPa Calm     87% 0 mm
02:06 13.2 °C 11.3 °C 1011.1 hPa Calm     88% 0 mm
02:11 13 °C 11.2 °C 1011.1 hPa Calm     89% 0 mm
02:16 12.9 °C 11.3 °C 1011.1 hPa Calm     90% 0 mm
02:21 12.8 °C 11.2 °C 1010.7 hPa Calm     90% 0 mm
02:26 12.7 °C 11.3 °C 1010.7 hPa Calm     91% 0 mm
02:31 12.6 °C 11.2 °C 1010.7 hPa Calm     91% 0 mm
02:36 12.4 °C 11 °C 1010.7 hPa Calm     91% 0 mm
02:41 12.3 °C 10.8 °C 1010.7 hPa Calm     91% 0 mm
02:46 12.3 °C 11.2 °C 1010.7 hPa Calm     93% 0 mm
02:51 12.2 °C 11.1 °C 1010.7 hPa Calm     93% 0 mm
02:56 12.2 °C 11.1 °C 1010.7 hPa Calm     93% 0 mm
03:01 12.3 °C 11.2 °C 1010.4 hPa Calm     93% 0 mm
03:06 12.2 °C 11.1 °C 1010.4 hPa Calm     93% 0 mm
03:11 12.2 °C 11.1 °C 1010.4 hPa Calm     93% 0 mm
03:17 12.1 °C 10.9 °C 1010.4 hPa Calm     93% 0 mm
03:22 11.8 °C 10.7 °C 1010.4 hPa Calm     93% 0 mm
03:27 11.8 °C 10.7 °C 1010.4 hPa Calm     93% 0 mm
03:32 11.8 °C 10.7 °C 1010.4 hPa Calm     93% 0 mm
03:37 11.8 °C 10.7 °C 1010.4 hPa Calm     93% 0 mm
03:42 11.8 °C 10.7 °C 1010.4 hPa Calm     93% 0 mm
03:47 11.7 °C 10.7 °C 1010.4 hPa Calm     94% 0 mm
03:49 11.7 °C 10.7 °C 1010.4 hPa Calm     94% 0 mm
03:54 11.6 °C 10.7 °C 1010.4 hPa Calm     94% 0 mm
03:59 11.7 °C 10.7 °C 1010.4 hPa Calm     94% 0 mm
04:04 11.7 °C 10.8 °C 1010.4 hPa Calm     94% 0 mm
04:09 11.8 °C 10.7 °C 1010.4 hPa Calm     93% 0 mm
04:14 11.9 °C 10.8 °C 1010.4 hPa Calm     93% 0 mm
04:19 11.9 °C 10.8 °C 1010.4 hPa Calm   1.6 km/h 93% 0 mm
04:24 11.9 °C 10.6 °C 1010.4 hPa Calm   1.6 km/h 92% 0 mm
04:29 11.8 °C 10.6 °C 1010 hPa Calm     92% 0 mm
04:34 11.8 °C 10.5 °C 1010 hPa Calm   1.6 km/h 92% 0 mm
04:39 11.8 °C 10.6 °C 1010.4 hPa Calm     92% 0 mm
04:44 11.9 °C 10.6 °C 1010.4 hPa Calm     92% 0 mm
04:49 11.9 °C 10.5 °C 1010.4 hPa NNW 1.6 km/h 1.6 km/h 91% 0 mm
04:54 11.9 °C 10.4 °C 1010.4 hPa NNW 1.6 km/h 1.6 km/h 91% 0 mm
04:59 11.7 °C 10.4 °C 1010.4 hPa Calm   1.6 km/h 92% 0 mm
05:05 11.6 °C 10.3 °C 1010.4 hPa Calm     92% 0 mm
05:10 11.5 °C 10.3 °C 1010 hPa Calm     92% 0 mm
05:15 11.4 °C 10.3 °C 1010 hPa Calm     93% 0 mm
05:20 11.4 °C 10.3 °C 1010.4 hPa Calm     93% 0 mm
05:25 11.4 °C 10.3 °C 1010.4 hPa Calm   1.6 km/h 93% 0 mm
05:30 11.2 °C 10.1 °C 1010.4 hPa NNW 1.6 km/h 1.6 km/h 93% 0 mm
05:35 11.2 °C 10.2 °C 1010.4 hPa Calm   1.6 km/h 94% 0 mm
05:40 11.2 °C 10.2 °C 1010 hPa Calm     94% 0 mm
05:45 11.1 °C 10.2 °C 1010 hPa Calm   1.6 km/h 94% 0 mm
05:50 11.3 °C 10.4 °C 1010.4 hPa Calm     94% 0 mm
05:55 11.4 °C 10.3 °C 1010.4 hPa Calm     93% 0 mm
06:00 11.4 °C 10.3 °C 1010.4 hPa Calm     93% 0 mm
06:05 11.6 °C 10.4 °C 1010.4 hPa Calm   1.6 km/h 93% 0 mm
06:10 11.8 °C 10.7 °C 1010.4 hPa Calm   1.6 km/h 93% 0 mm
06:15 11.8 °C 10.4 °C 1010.4 hPa NNW 1.6 km/h 1.6 km/h 91% 0 mm
06:20 11.4 °C 10.1 °C 1010.4 hPa NNW 1.6 km/h 1.6 km/h 92% 0 mm
06:25 11.1 °C 10 °C 1010.4 hPa NNW 1.6 km/h 1.6 km/h 93% 0 mm
06:30 11 °C 9.9 °C 1010.4 hPa Calm   1.6 km/h 93% 0 mm
06:35 10.8 °C 9.7 °C 1010.7 hPa Calm     93% 0 mm
06:40 10.6 °C 9.4 °C 1010.7 hPa Calm     93% 0 mm
06:45 10.4 °C 9.5 °C 1010.7 hPa Calm     94% 0 mm
06:46 10.5 °C 9.6 °C 1010.7 hPa Calm     94% 0 mm
06:51 10.4 °C 9.5 °C 1010.7 hPa Calm     94% 0 mm
06:56 10.7 °C 9.9 °C 1011.1 hPa Calm     95% 0 mm
07:01 10.7 °C 9.7 °C 1011.1 hPa Calm     94% 0 mm
07:06 10.6 °C 9.7 °C 1011.1 hPa Calm     94% 0 mm
07:11 10.7 °C 9.7 °C 1011.1 hPa Calm     94% 0 mm
07:16 10.8 °C 10 °C 1011.1 hPa Calm     95% 0 mm
07:21 11.2 °C 10.4 °C 1011.1 hPa Calm     95% 0 mm
07:26 11.6 °C 10.7 °C 1011.1 hPa Calm     94% 0 mm
07:31 11.9 °C 10.9 °C 1011.1 hPa Calm     94% 0 mm
07:37 12.4 °C 11.5 °C 1011.1 hPa Calm     94% 0 mm
07:42 13.1 °C 12 °C 1011.1 hPa Calm     93% 0 mm
07:47 13.3 °C 11.8 °C 1010.7 hPa Calm     91% 0 mm
07:52 13.5 °C 12.1 °C 1011.1 hPa Calm     91% 0 mm
07:57 13.7 °C 12.2 °C 1011.1 hPa Calm     91% 0 mm
08:02 13.8 °C 12.4 °C 1011.1 hPa Calm     91% 0 mm
08:07 14.1 °C 12.6 °C 1011.1 hPa Calm     91% 0 mm
08:12 14.5 °C 13.2 °C 1011.1 hPa Calm     92% 0 mm
08:17 15.2 °C 13.8 °C 1011.1 hPa Calm     91% 0 mm
08:22 15.9 °C 14.1 °C 1011.1 hPa Calm     89% 0 mm
08:27 16.2 °C 14.1 °C 1011.1 hPa Calm     87% 0 mm
08:32 16.5 °C 13.8 °C 1011.1 hPa Calm     84% 0 mm
08:37 17 °C 14.4 °C 1011.1 hPa Calm     85% 0 mm
08:42 17.8 °C 15.1 °C 1011.1 hPa Calm     84% 0 mm
08:47 18.8 °C 15.3 °C 1011.1 hPa Calm     80% 0 mm
08:52 19.8 °C 16.1 °C 1011.4 hPa Calm     79% 0 mm
08:57 20.4 °C 15.4 °C 1011.4 hPa ESE 1.6 km/h 3.2 km/h 73% 0 mm
09:02 19.9 °C 15.1 °C 1011.4 hPa ESE 3.2 km/h 6.4 km/h 74% 0 mm
09:07 19.8 °C 14.8 °C 1011.4 hPa SE 3.2 km/h 3.2 km/h 73% 0 mm
09:13 19.7 °C 14.1 °C 1011.4 hPa ESE 3.2 km/h 4.8 km/h 70% 0 mm
09:18 19.7 °C 13.7 °C 1011.4 hPa ESE 1.6 km/h 4.8 km/h 68% 0 mm
09:23 20 °C 14.2 °C 1011.4 hPa Calm   4.8 km/h 69% 0 mm
09:28 20.2 °C 13.9 °C 1011.4 hPa Calm   3.2 km/h 67% 0 mm
09:33 20.7 °C 14.3 °C 1011.4 hPa SE 3.2 km/h 3.2 km/h 67% 0 mm
09:38 21.1 °C 14.7 °C 1011.4 hPa SSW 1.6 km/h 3.2 km/h 67% 0 mm
09:43 21.1 °C 14.7 °C 1011.4 hPa SE 3.2 km/h 3.2 km/h 67% 0 mm
09:48 21.3 °C 14.9 °C 1011.4 hPa SSE 1.6 km/h 4.8 km/h 67% 0 mm
09:53 21.4 °C 14.8 °C 1011.4 hPa SE 3.2 km/h 4.8 km/h 66% 0 mm
09:58 21.3 °C 14 °C 1011.4 hPa ESE 3.2 km/h 6.4 km/h 63% 0 mm
10:03 21.2 °C 14.6 °C 1011.4 hPa ESE 3.2 km/h 6.4 km/h 66% 0 mm
10:08 21.2 °C 14.3 °C 1011.4 hPa ESE 3.2 km/h 8 km/h 65% 0 mm
10:13 21.3 °C 14.4 °C 1011.4 hPa SSE 3.2 km/h 6.4 km/h 65% 0 mm
10:18 21.4 °C 14.6 °C 1011.4 hPa SW 3.2 km/h 6.4 km/h 65% 0 mm
10:23 21.4 °C 14.1 °C 1011.4 hPa ESE 4.8 km/h 6.4 km/h 63% 0 mm
10:28 21.4 °C 13.6 °C 1011.4 hPa Calm   4.8 km/h 61% 0 mm
10:33 21.9 °C 14.8 °C 1011.4 hPa East 1.6 km/h 4.8 km/h 64% 0 mm
10:38 21.9 °C 14.1 °C 1011.4 hPa SSW 4.8 km/h 9.7 km/h 61% 0 mm
10:43 22.1 °C 13.4 °C 1011.4 hPa SSW 4.8 km/h 6.4 km/h 58% 0 mm
10:48 22.2 °C 13 °C 1011.7 hPa SSE 8 km/h 12.9 km/h 56% 0 mm
10:53 22.1 °C 13.9 °C 1011.7 hPa SSW 4.8 km/h 9.7 km/h 60% 0 mm
10:58 22.1 °C 13.4 °C 1011.4 hPa SSE 4.8 km/h 4.8 km/h 58% 0 mm
11:03 22.3 °C 14.2 °C 1011.4 hPa South 4.8 km/h 11.3 km/h 60% 0 mm
11:08 22.4 °C 14 °C 1011.4 hPa WSW 12.9 km/h 12.9 km/h 59% 0 mm
11:13 22.3 °C 13.6 °C 1011.7 hPa SSW 1.6 km/h 9.7 km/h 58% 0 mm
11:18 22.4 °C 13.4 °C 1011.7 hPa South 6.4 km/h 12.9 km/h 57% 0 mm
11:23 22.5 °C 13.6 °C 1011.7 hPa SW 6.4 km/h 11.3 km/h 57% 0 mm
11:28 22.6 °C 13.7 °C 1011.7 hPa SW 9.7 km/h 11.3 km/h 57% 0 mm
11:33 22.6 °C 14.2 °C 1011.7 hPa SSW 6.4 km/h 12.9 km/h 59% 0 mm
11:38 22.8 °C 13.6 °C 1011.7 hPa Calm   4.8 km/h 56% 0 mm
11:43 23.1 °C 14.1 °C 1011.7 hPa SSW 4.8 km/h 8 km/h 57% 0 mm
11:48 23.1 °C 13.3 °C 1011.7 hPa West 8 km/h 14.5 km/h 54% 0 mm
11:53 22.8 °C 13.3 °C 1011.7 hPa SW 6.4 km/h 11.3 km/h 55% 0 mm
11:58 23 °C 13.5 °C 1011.7 hPa SW 4.8 km/h 9.7 km/h 55% 0 mm
12:03 22.9 °C 13.7 °C 1011.7 hPa WSW 12.9 km/h 12.9 km/h 56% 0 mm
12:09 22.9 °C 14 °C 1011.7 hPa West 3.2 km/h 12.9 km/h 57% 0 mm
12:14 23.2 °C 13.9 °C 1011.4 hPa WSW 3.2 km/h 6.4 km/h 56% 0 mm
12:19 23.3 °C 12.9 °C 1011.4 hPa SSW 4.8 km/h 11.3 km/h 52% 0 mm
12:24 23.3 °C 12.9 °C 1011.7 hPa SW 4.8 km/h 11.3 km/h 52% 0 mm
12:29 23.4 °C 12.7 °C 1011.4 hPa WSW 3.2 km/h 4.8 km/h 51% 0 mm
12:34 23.6 °C 13.4 °C 1011.4 hPa SW 4.8 km/h 11.3 km/h 53% 0 mm
12:39 23.4 °C 12.7 °C 1011.4 hPa WSW 3.2 km/h 16.1 km/h 51% 0 mm
12:44 23.3 °C 12.6 °C 1011.4 hPa SSE 4.8 km/h 12.9 km/h 51% 0 mm
12:45 23.3 °C 12.6 °C 1011.4 hPa SSE 3.2 km/h 12.9 km/h 51% 0 mm
12:50 23.6 °C 13.2 °C 1011.4 hPa WNW 4.8 km/h 8 km/h 52% 0 mm
12:55 23.8 °C 13.9 °C 1011.4 hPa SSW 3.2 km/h 9.7 km/h 54% 0 mm
13:00 23.9 °C 13.2 °C 1011.4 hPa SSE 3.2 km/h 17.7 km/h 51% 0 mm
13:05 24.1 °C 13.9 °C 1011.4 hPa SSW 14.5 km/h 14.5 km/h 53% 0 mm
13:10 24.2 °C 12.8 °C 1011.4 hPa SSE 3.2 km/h 6.4 km/h 49% 0 mm
13:15 24.2 °C 12.8 °C 1011.4 hPa WSW 6.4 km/h 11.3 km/h 49% 0 mm
13:20 24.3 °C 13.5 °C 1011.4 hPa SSW 8 km/h 14.5 km/h 51% 0 mm
13:25 24.4 °C 13 °C 1011.4 hPa SW 12.9 km/h 12.9 km/h 49% 0 mm
13:31 24.5 °C 13.4 °C 1011.1 hPa SSE 9.7 km/h 14.5 km/h 50% 0 mm
13:36 24.4 °C 13.3 °C 1011.4 hPa SSE 6.4 km/h 12.9 km/h 50% 0 mm
13:41 24.3 °C 14.4 °C 1011.1 hPa South 1.6 km/h 11.3 km/h 54% 0 mm
13:46 24.6 °C 14.7 °C 1011.1 hPa WSW 8 km/h 8 km/h 54% 0 mm
13:51 24.7 °C 14.2 °C 1011.1 hPa SSE 4.8 km/h 9.7 km/h 52% 0 mm
13:56 24.8 °C 12.8 °C 1011.1 hPa West 6.4 km/h 11.3 km/h 47% 0 mm
14:01 24.8 °C 12.8 °C 1011.1 hPa South 4.8 km/h 11.3 km/h 47% 0 mm
14:06 24.9 °C 12.6 °C 1010.7 hPa ESE 6.4 km/h 12.9 km/h 46% 0 mm
14:11 24.8 °C 13.4 °C 1010.7 hPa SE 4.8 km/h 9.7 km/h 49% 0 mm
14:16 25.2 °C 13.7 °C 1010.7 hPa SSE 1.6 km/h 8 km/h 49% 0 mm
14:21 25.3 °C 14.2 °C 1010.7 hPa South 3.2 km/h 6.4 km/h 50% 0 mm
14:26 25.4 °C 12.9 °C 1010.7 hPa WSW 6.4 km/h 9.7 km/h 46% 0 mm
14:31 25.4 °C 13.6 °C 1010.7 hPa SSW 6.4 km/h 12.9 km/h 48% 0 mm
14:37 25.3 °C 13.2 °C 1010.4 hPa NNE 6.4 km/h 6.4 km/h 47% 0 mm
14:42 25.3 °C 14.7 °C 1010.4 hPa SSE 6.4 km/h 8 km/h 52% 0 mm
14:47 25.4 °C 13.9 °C 1010.4 hPa West 8 km/h 9.7 km/h 49% 0 mm
14:52 25.3 °C 13.2 °C 1010.4 hPa Calm   4.8 km/h 47% 0 mm
14:57 25.4 °C 12.9 °C 1010.4 hPa West 3.2 km/h 11.3 km/h 46% 0 mm
15:02 25.3 °C 12.9 °C 1010 hPa Calm   6.4 km/h 46% 0 mm
15:03 25.3 °C 13.2 °C 1010 hPa Calm   6.4 km/h 47% 0 mm
15:08 25.7 °C 14.2 °C 1010 hPa SW 8 km/h 11.3 km/h 49% 0 mm
15:13 25.9 °C 13.7 °C 1010 hPa SSW 6.4 km/h 11.3 km/h 47% 0 mm
15:18 25.9 °C 13.1 °C 1010 hPa SW 9.7 km/h 12.9 km/h 45% 0 mm
15:23 25.8 °C 12.9 °C 1010 hPa South 6.4 km/h 8 km/h 45% 0 mm
15:28 25.9 °C 13.1 °C 1010 hPa SSE 6.4 km/h 9.7 km/h 45% 0 mm
15:33 26 °C 13.5 °C 1009.7 hPa South 1.6 km/h 4.8 km/h 46% 0 mm
15:38 25.9 °C 11.7 °C 1009.7 hPa ESE 4.8 km/h 8 km/h 41% 0 mm
15:43 25.7 °C 12.6 °C 1009.7 hPa ESE 4.8 km/h 6.4 km/h 44% 0 mm
15:48 26 °C 12.4 °C 1009.7 hPa SW 3.2 km/h 8 km/h 43% 0 mm
15:53 26.1 °C 12.9 °C 1009.7 hPa SE 4.8 km/h 9.7 km/h 44% 0 mm
15:58 26.1 °C 13.3 °C 1009.7 hPa West 3.2 km/h 11.3 km/h 45% 0 mm
16:04 26.4 °C 14.9 °C 1009.7 hPa SSW 3.2 km/h 8 km/h 49% 0 mm
16:09 26.7 °C 14.2 °C 1009.4 hPa ESE 6.4 km/h 9.7 km/h 46% 0 mm
16:14 26.5 °C 13.6 °C 1009.4 hPa Calm   3.2 km/h 45% 0 mm
16:19 26.7 °C 14.2 °C 1009.4 hPa East 14.5 km/h 14.5 km/h 46% 0 mm
16:24 26.3 °C 13.4 °C 1009.4 hPa East 11.3 km/h 12.9 km/h 45% 0 mm
16:29 26.2 °C 14 °C 1009.4 hPa SSE 4.8 km/h 9.7 km/h 47% 0 mm
16:34 26.5 °C 14.9 °C 1009.4 hPa WSW 4.8 km/h 8 km/h 49% 0 mm
16:39 26.2 °C 12.3 °C 1009.4 hPa SE 11.3 km/h 16.1 km/h 42% 0 mm
16:44 26.1 °C 13.2 °C 1009.4 hPa SSE 4.8 km/h 12.9 km/h 45% 0 mm
16:49 26.3 °C 13.4 °C 1009 hPa SW 4.8 km/h 6.4 km/h 45% 0 mm
16:54 26.3 °C 12.8 °C 1009 hPa WSW 3.2 km/h 8 km/h 43% 0 mm
16:59 26.3 °C 13.8 °C 1009 hPa SW 4.8 km/h 11.3 km/h 46% 0 mm
17:04 26.4 °C 14.2 °C 1009 hPa NE 3.2 km/h 4.8 km/h 47% 0 mm
17:09 26.4 °C 13.2 °C 1009 hPa SE 3.2 km/h 11.3 km/h 44% 0 mm
17:14 26.5 °C 12.9 °C 1009 hPa SSW 4.8 km/h 11.3 km/h 43% 0 mm
17:19 26.6 °C 12.2 °C 1009 hPa SSE 8 km/h 14.5 km/h 41% 0 mm
17:24 26.4 °C 13.2 °C 1009 hPa ESE 14.5 km/h 14.5 km/h 44% 0 mm
17:29 26.3 °C 11.7 °C 1009 hPa ESE 11.3 km/h 16.1 km/h 40% 0 mm
17:34 26.2 °C 11.9 °C 1009 hPa SE 8 km/h 14.5 km/h 41% 0 mm
17:40 26 °C 12.1 °C 1009 hPa East 4.8 km/h 11.3 km/h 42% 0 mm
17:45 26.2 °C 11.9 °C 1009 hPa Calm   6.4 km/h 41% 0 mm
17:50 26.7 °C 12.8 °C 1009 hPa SW 4.8 km/h 9.7 km/h 42% 0 mm
17:55 26.7 °C 11.6 °C 1009 hPa SSW 3.2 km/h 6.4 km/h 39% 0 mm
18:00 26.6 °C 11.1 °C 1009 hPa SW 4.8 km/h 12.9 km/h 38% 0 mm
18:05 26.7 °C 12.8 °C 1009 hPa SSE 8 km/h 11.3 km/h 42% 0 mm
18:10 26.7 °C 12.3 °C 1008.7 hPa SE 4.8 km/h 9.7 km/h 41% 0 mm
18:15 26.7 °C 13.1 °C 1008.7 hPa SSW 4.8 km/h 11.3 km/h 43% 0 mm
18:20 26.7 °C 12 °C 1009 hPa SSE 3.2 km/h 11.3 km/h 40% 0 mm
18:25 26.9 °C 12.6 °C 1009 hPa SE 8 km/h 11.3 km/h 41% 0 mm
18:30 26.7 °C 13.1 °C 1009 hPa SW 3.2 km/h 3.2 km/h 43% 0 mm
18:31 26.7 °C 13.1 °C 1009 hPa SW 3.2 km/h 3.2 km/h 43% 0 mm
18:36 26.8 °C 12.4 °C 1009 hPa SE 4.8 km/h 4.8 km/h 41% 0 mm
18:41 26.8 °C 12.4 °C 1009 hPa SE 8 km/h 11.3 km/h 41% 0 mm
18:46 26.7 °C 13.1 °C 1008.7 hPa South 9.7 km/h 9.7 km/h 43% 0 mm
18:51 26.7 °C 12.8 °C 1009 hPa SSE 6.4 km/h 8 km/h 42% 0 mm
18:56 26.6 °C 13.3 °C 1008.7 hPa SSE 4.8 km/h 9.7 km/h 44% 0 mm
19:01 26.5 °C 13.6 °C 1009 hPa ESE 8 km/h 9.7 km/h 45% 0 mm
19:06 26.3 °C 13.4 °C 1008.7 hPa SE 4.8 km/h 8 km/h 45% 0 mm
19:11 26.2 °C 13 °C 1008.7 hPa SE 6.4 km/h 8 km/h 44% 0 mm
19:16 26.2 °C 13.7 °C 1008.7 hPa South 3.2 km/h 6.4 km/h 46% 0 mm
19:21 26.1 °C 13.3 °C 1008.7 hPa SSE 4.8 km/h 8 km/h 45% 0 mm
19:26 26.2 °C 12.9 °C 1008.7 hPa South 3.2 km/h 6.4 km/h 44% 0 mm
19:31 26.1 °C 13.6 °C 1008.7 hPa SE 4.8 km/h 9.7 km/h 46% 0 mm
19:36 25.9 °C 13.4 °C 1008.7 hPa SE 4.8 km/h 6.4 km/h 46% 0 mm
19:41 25.7 °C 12.9 °C 1008.7 hPa ESE 6.4 km/h 9.7 km/h 45% 0 mm
19:46 25.6 °C 13.2 °C 1008.7 hPa SE 6.4 km/h 8 km/h 46% 0 mm
19:51 25.6 °C 13.4 °C 1008.7 hPa SE 3.2 km/h 6.4 km/h 47% 0 mm
19:56 25.6 °C 13.7 °C 1008.7 hPa SE 3.2 km/h 4.8 km/h 48% 0 mm
20:02 25.6 °C 14.7 °C 1008.7 hPa SSE 1.6 km/h 3.2 km/h 51% 0 mm
20:07 25.4 °C 13.9 °C 1008.7 hPa SE 1.6 km/h 6.4 km/h 49% 0 mm
20:12 25.3 °C 13.8 °C 1008.7 hPa ESE 3.2 km/h 3.2 km/h 49% 0 mm
20:17 25.2 °C 14.3 °C 1008.7 hPa ESE 1.6 km/h 3.2 km/h 51% 0 mm
20:22 24.9 °C 14.4 °C 1008.7 hPa SE 3.2 km/h 4.8 km/h 52% 0 mm
20:27 24.7 °C 14.2 °C 1008.7 hPa ESE 1.6 km/h 3.2 km/h 52% 0 mm
20:32 24.4 °C 14.6 °C 1008.7 hPa ESE 1.6 km/h 1.6 km/h 54% 0 mm
20:37 24.2 °C 14.6 °C 1008.7 hPa Calm   1.6 km/h 55% 0 mm
20:42 23.8 °C 14.8 °C 1008.7 hPa Calm   1.6 km/h 57% 0 mm
20:47 23.3 °C 14.3 °C 1008.7 hPa East 3.2 km/h 3.2 km/h 57% 0 mm
20:52 23 °C 14.3 °C 1008.7 hPa ESE 1.6 km/h 1.6 km/h 58% 0 mm
20:57 22.6 °C 14.2 °C 1008.7 hPa Calm     59% 0 mm
21:02 22.2 °C 13.6 °C 1009 hPa Calm   1.6 km/h 58% 0 mm
21:07 22.1 °C 13.7 °C 1008.7 hPa ESE 1.6 km/h 1.6 km/h 59% 0 mm
21:12 21.8 °C 13.4 °C 1009 hPa ESE 1.6 km/h 3.2 km/h 59% 0 mm
21:17 21.7 °C 13.3 °C 1009 hPa ESE 1.6 km/h 3.2 km/h 59% 0 mm
21:22 21.6 °C 13.4 °C 1009 hPa Calm   1.6 km/h 60% 0 mm
21:27 21.4 °C 13.6 °C 1009 hPa ESE 3.2 km/h 3.2 km/h 61% 0 mm
21:32 21.2 °C 13.4 °C 1009 hPa ESE 1.6 km/h 3.2 km/h 61% 0 mm
21:38 21.2 °C 13.3 °C 1009 hPa East 3.2 km/h 3.2 km/h 61% 0 mm
21:43 21.1 °C 13.3 °C 1009 hPa ESE 1.6 km/h 3.2 km/h 61% 0 mm
21:48 21.1 °C 13.2 °C 1009 hPa ESE 1.6 km/h 1.6 km/h 61% 0 mm
21:53 20.9 °C 12.9 °C 1009 hPa ESE 1.6 km/h 3.2 km/h 60% 0 mm
21:58 20.9 °C 12.8 °C 1009 hPa ESE 1.6 km/h 3.2 km/h 60% 0 mm
22:03 20.8 °C 13 °C 1009 hPa ESE 1.6 km/h 1.6 km/h 61% 0 mm
22:08 20.7 °C 12.7 °C 1009.4 hPa ESE 1.6 km/h 1.6 km/h 60% 0 mm
22:13 20.7 °C 12.6 °C 1009.4 hPa ESE 1.6 km/h 1.6 km/h 60% 0 mm
22:18 20.7 °C 12.6 °C 1009.4 hPa ESE 1.6 km/h 1.6 km/h 60% 0 mm
22:23 20.5 °C 12.7 °C 1009.4 hPa Calm   1.6 km/h 61% 0 mm
22:28 20.3 °C 12.8 °C 1009.4 hPa Calm   1.6 km/h 62% 0 mm
22:33 20.1 °C 12.8 °C 1009.4 hPa Calm     63% 0 mm
22:38 20 °C 12.5 °C 1009.4 hPa East 3.2 km/h 3.2 km/h 62% 0 mm
22:43 20.2 °C 12.7 °C 1009.4 hPa ESE 1.6 km/h 3.2 km/h 62% 0 mm
22:48 20.2 °C 12.9 °C 1009.4 hPa ESE 1.6 km/h 3.2 km/h 63% 0 mm
22:54 20.2 °C 12.9 °C 1009.4 hPa East 3.2 km/h 4.8 km/h 63% 0 mm
22:59 20.1 °C 13.1 °C 1009.4 hPa ESE 3.2 km/h 3.2 km/h 64% 0 mm
23:04 19.9 °C 13.2 °C 1009.7 hPa ESE 3.2 km/h 4.8 km/h 65% 0 mm
23:09 19.8 °C 13.2 °C 1009.4 hPa SE 3.2 km/h 4.8 km/h 66% 0 mm
23:14 19.7 °C 13.2 °C 1009.4 hPa ESE 4.8 km/h 4.8 km/h 66% 0 mm
23:19 19.6 °C 13.3 °C 1009.4 hPa ESE 3.2 km/h 4.8 km/h 67% 0 mm
23:24 19.4 °C 13.1 °C 1009.4 hPa ESE 3.2 km/h 6.4 km/h 67% 0 mm
23:29 19.4 °C 13.3 °C 1009.7 hPa SE 3.2 km/h 4.8 km/h 68% 0 mm
23:34 19.4 °C 13.4 °C 1009.4 hPa ESE 3.2 km/h 6.4 km/h 68% 0 mm
23:39 19.5 °C 13.4 °C 1009.4 hPa ESE 4.8 km/h 4.8 km/h 68% 0 mm
23:40 19.5 °C 13.4 °C 1009.4 hPa SE 3.2 km/h 4.8 km/h 68% 0 mm
23:45 19.3 °C 13.5 °C 1009.4 hPa SE 1.6 km/h 3.2 km/h 69% 0 mm
Compliments of Weather Underground